createdAt,value
2018-04-26T00:01:35.969Z,10.95
2018-04-26T00:04:03.562Z,12.48
2018-04-26T00:06:32.655Z,10.07
2018-04-26T00:09:00.315Z,11.38
2018-04-26T00:11:27.993Z,10.65
2018-04-26T00:13:55.575Z,10.65
2018-04-26T00:16:23.253Z,9.85
2018-04-26T00:18:52.436Z,9.65
2018-04-26T00:21:20.145Z,10.45
2018-04-26T00:23:47.702Z,10.95
2018-04-26T00:26:15.294Z,10.77
2018-04-26T00:28:42.854Z,11.68
2018-04-26T00:31:10.439Z,11.60
2018-04-26T00:33:37.996Z,11.38
2018-04-26T00:36:05.564Z,11.43
2018-04-26T00:38:33.148Z,11.30
2018-04-26T00:41:00.748Z,11.70
2018-04-26T00:43:28.422Z,10.90
2018-04-26T00:45:56.821Z,10.80
2018-04-26T00:48:25.231Z,11.10
2018-04-26T00:50:53.061Z,10.73
2018-04-26T00:53:20.645Z,11.15
2018-04-26T00:55:48.225Z,11.23
2018-04-26T00:58:15.776Z,10.82
2018-04-26T01:00:43.448Z,12.30
2018-04-26T01:03:11.015Z,12.80
2018-04-26T01:05:38.699Z,12.13
2018-04-26T01:08:06.273Z,10.55
2018-04-26T01:10:33.946Z,12.82
2018-04-26T01:13:01.542Z,12.45
2018-04-26T01:15:29.182Z,12.90
2018-04-26T01:17:56.757Z,12.50
2018-04-26T01:20:24.323Z,12.37
2018-04-26T01:22:51.898Z,12.45
2018-04-26T01:25:19.456Z,12.73
2018-04-26T01:27:47.030Z,12.73
2018-04-26T01:30:14.582Z,10.98
2018-04-26T01:32:42.161Z,11.00
2018-04-26T01:35:09.755Z,10.00
2018-04-26T01:37:54.021Z,9.23
2018-04-26T01:40:21.589Z,9.75
2018-04-26T01:42:49.170Z,11.12
2018-04-26T01:45:16.805Z,10.07
2018-04-26T01:47:44.333Z,9.43
2018-04-26T01:50:11.882Z,9.07
2018-04-26T01:52:39.566Z,9.02
2018-04-26T01:55:07.133Z,10.55
2018-04-26T01:57:34.742Z,11.73
2018-04-26T02:00:03.106Z,11.68
2018-04-26T02:02:30.732Z,10.88
2018-04-26T02:04:58.469Z,10.30
2018-04-26T02:07:26.403Z,11.30
2018-04-26T02:09:54.078Z,11.02
2018-04-26T02:12:21.982Z,9.77
2018-04-26T02:14:49.558Z,10.13
2018-04-26T02:17:17.133Z,10.77
2018-04-26T02:19:44.689Z,11.50
2018-04-26T02:22:12.373Z,11.12
2018-04-26T02:24:39.934Z,11.05
2018-04-26T02:27:07.618Z,9.15
2018-04-26T02:29:35.178Z,12.25
2018-04-26T02:32:02.835Z,12.63
2018-04-26T02:34:30.406Z,11.43
2018-04-26T02:36:58.069Z,14.07
2018-04-26T02:39:26.166Z,12.35
2018-04-26T02:41:53.806Z,14.82
2018-04-26T02:44:21.423Z,13.73
2018-04-26T02:46:49.026Z,13.30
2018-04-26T02:49:16.689Z,13.43
2018-04-26T02:51:44.953Z,14.05
2018-04-26T02:54:12.533Z,14.50
2018-04-26T02:56:40.136Z,14.93
2018-04-26T02:59:07.722Z,16.90
2018-04-26T03:01:35.376Z,15.60
2018-04-26T03:04:02.977Z,16.10
2018-04-26T03:06:31.357Z,14.95
2018-04-26T03:08:59.821Z,16.60
2018-04-26T03:11:27.423Z,17.60
2018-04-26T03:13:55.352Z,19.00
2018-04-26T03:16:23.130Z,17.40
2018-04-26T03:18:50.723Z,19.40
2018-04-26T03:21:18.278Z,17.87
2018-04-26T03:23:45.858Z,17.60
2018-04-26T03:26:13.446Z,17.60
2018-04-26T03:28:41.022Z,17.17
2018-04-26T03:31:08.660Z,17.15
2018-04-26T03:33:36.181Z,17.08
2018-04-26T03:36:03.737Z,16.30
2018-04-26T03:38:31.428Z,17.02
2018-04-26T03:40:59.020Z,16.42
2018-04-26T03:43:27.482Z,17.08
2018-04-26T03:45:55.081Z,16.02
2018-04-26T03:48:22.786Z,16.80
2018-04-26T03:50:50.401Z,16.87
2018-04-26T03:53:18.279Z,16.35
2018-04-26T03:55:45.949Z,16.20
2018-04-26T03:58:13.509Z,15.95
2018-04-26T04:03:54.020Z,16.30
2018-04-26T04:06:21.765Z,16.65
2018-04-26T04:08:49.473Z,17.00
2018-04-26T04:11:17.054Z,16.02
2018-04-26T04:13:44.731Z,15.15
2018-04-26T04:16:12.250Z,16.95
2018-04-26T04:18:39.805Z,13.50
2018-04-26T04:21:08.157Z,14.93
2018-04-26T04:23:35.719Z,13.93
2018-04-26T04:26:03.298Z,13.70
2018-04-26T04:28:30.861Z,14.57
2018-04-26T04:30:58.459Z,17.08
2018-04-26T04:33:26.118Z,16.48
2018-04-26T04:35:53.700Z,16.80
2018-04-26T04:38:21.280Z,16.50
2018-04-26T04:40:48.945Z,17.95
2018-04-26T04:43:16.498Z,19.60
2018-04-26T04:45:44.072Z,22.75
2018-04-26T04:48:11.661Z,25.27
2018-04-26T04:50:39.232Z,23.25
2018-04-26T04:53:06.785Z,20.62
2018-04-26T04:55:34.361Z,20.50
2018-04-26T04:58:01.963Z,21.12
2018-04-26T05:00:29.561Z,18.02
2018-04-26T05:02:57.925Z,17.80
2018-04-26T05:05:25.517Z,19.92
2018-04-26T05:07:53.181Z,20.05
2018-04-26T05:10:21.544Z,21.98
2018-04-26T05:12:49.105Z,19.40
2018-04-26T05:15:17.017Z,20.40
2018-04-26T05:17:45.253Z,21.80
2018-04-26T05:20:12.805Z,19.00
2018-04-26T05:22:41.158Z,19.05
2018-04-26T05:25:08.737Z,21.00
2018-04-26T05:27:36.311Z,20.40
2018-04-26T05:30:03.898Z,20.92
2018-04-26T05:32:31.499Z,20.50
2018-04-26T05:34:59.069Z,20.77
2018-04-26T05:37:26.673Z,20.50
2018-04-26T05:39:54.342Z,19.92
2018-04-26T05:42:22.045Z,20.42
2018-04-26T05:44:49.602Z,18.77
2018-04-26T05:47:17.246Z,20.10
2018-04-26T05:49:45.550Z,18.83
2018-04-26T05:52:13.125Z,18.35
2018-04-26T05:54:40.678Z,20.15
2018-04-26T05:57:08.254Z,21.15
2018-04-26T05:59:35.805Z,19.98
2018-04-26T06:02:04.154Z,19.52
2018-04-26T06:04:31.721Z,20.42
2018-04-26T06:06:59.306Z,19.48
2018-04-26T06:09:26.949Z,21.23
2018-04-26T06:11:54.640Z,19.80
2018-04-26T06:14:22.219Z,21.62
2018-04-26T06:16:49.841Z,20.20
2018-04-26T06:19:17.382Z,18.80
2018-04-26T06:21:44.932Z,19.33
2018-04-26T06:24:12.505Z,19.70
2018-04-26T06:26:40.062Z,16.85
2018-04-26T06:29:07.642Z,17.15
2018-04-26T06:31:35.297Z,17.23
2018-04-26T06:34:02.921Z,13.30
2018-04-26T06:36:30.492Z,14.00
2018-04-26T06:38:58.109Z,11.70
2018-04-26T06:41:25.701Z,12.93
2018-04-26T06:43:53.290Z,14.23
2018-04-26T06:46:20.858Z,13.95
2018-04-26T06:48:49.200Z,12.45
2018-04-26T06:51:17.524Z,10.75
2018-04-26T06:53:45.098Z,13.18
2018-04-26T06:56:12.655Z,11.45
2018-04-26T06:58:40.251Z,8.80
2018-04-26T07:01:07.815Z,9.95
2018-04-26T07:03:35.476Z,9.48
2018-04-26T07:06:03.165Z,9.63
2018-04-26T07:08:31.531Z,9.65
2018-04-26T07:10:59.141Z,7.25
2018-04-26T07:13:26.735Z,7.03
2018-04-26T07:15:55.097Z,6.87
2018-04-26T07:18:22.721Z,4.97
2018-04-26T07:20:51.058Z,5.32
2018-04-26T07:23:18.611Z,6.30
2018-04-26T07:25:46.185Z,4.80
2018-04-26T07:28:13.774Z,4.32
2018-04-26T07:30:41.346Z,3.50
2018-04-26T07:33:09.453Z,4.25
2018-04-26T07:35:37.030Z,3.80
2018-04-26T07:38:04.602Z,2.80
2018-04-26T07:40:32.250Z,4.40
2018-04-26T07:42:59.826Z,3.60
2018-04-26T07:45:27.378Z,3.60
2018-04-26T07:47:54.972Z,2.80
2018-04-26T07:50:22.549Z,2.47
2018-04-26T07:52:50.125Z,1.95
2018-04-26T07:55:18.506Z,2.03
2018-04-26T07:57:46.198Z,2.12
2018-04-26T08:00:13.827Z,2.47
2018-04-26T08:02:41.576Z,1.85
2018-04-26T08:05:09.162Z,1.50
2018-04-26T08:07:36.823Z,1.40
2018-04-26T08:10:05.246Z,1.17
2018-04-26T08:12:32.905Z,1.77
2018-04-26T08:15:00.525Z,1.60
2018-04-26T08:17:28.101Z,1.10
2018-04-26T08:19:55.669Z,1.10
2018-04-26T08:22:23.349Z,1.37
2018-04-26T08:24:50.901Z,1.52
2018-04-26T08:27:18.458Z,0.90
2018-04-26T08:29:46.073Z,1.52
2018-04-26T08:32:13.645Z,1.55
2018-04-26T08:34:41.249Z,1.80
2018-04-26T08:37:09.635Z,1.58
2018-04-26T08:39:37.234Z,2.10
2018-04-26T08:42:04.809Z,1.50
2018-04-26T08:44:32.407Z,1.50
2018-04-26T08:47:00.017Z,1.02
2018-04-26T08:49:28.656Z,1.10
2018-04-26T08:51:57.190Z,1.25
2018-04-26T08:54:25.559Z,1.40
2018-04-26T08:56:53.126Z,1.10
2018-04-26T08:59:20.710Z,1.33
2018-04-26T09:01:48.265Z,1.27
2018-04-26T09:04:15.837Z,1.37
2018-04-26T09:06:43.462Z,1.17
2018-04-26T09:09:11.129Z,1.45
2018-04-26T09:11:38.717Z,1.50
2018-04-26T09:14:06.293Z,1.33
2018-04-26T09:16:34.819Z,1.10
2018-04-26T09:19:02.390Z,1.35
2018-04-26T09:21:30.982Z,1.73
2018-04-26T09:23:58.552Z,1.33
2018-04-26T09:26:26.130Z,1.87
2018-04-26T09:28:53.685Z,1.30
2018-04-26T09:31:21.255Z,1.27
2018-04-26T09:33:51.746Z,1.10
2018-04-26T09:36:19.321Z,1.10
2018-04-26T09:38:46.893Z,1.45
2018-04-26T09:41:14.473Z,1.00
2018-04-26T09:43:42.025Z,1.25
2018-04-26T09:46:09.618Z,1.10
2018-04-26T09:48:37.290Z,0.80
2018-04-26T09:51:04.871Z,0.90
2018-04-26T09:53:33.413Z,1.48
2018-04-26T09:56:01.135Z,0.93
2018-04-26T09:58:29.553Z,1.00
2018-04-26T10:00:57.091Z,1.23
2018-04-26T10:03:27.599Z,0.90
2018-04-26T10:05:57.666Z,0.80
2018-04-26T10:08:25.363Z,1.23
2018-04-26T10:10:53.719Z,1.00
2018-04-26T10:13:21.342Z,1.45
2018-04-26T10:15:48.906Z,0.80
2018-04-26T10:18:17.261Z,1.25
2018-04-26T10:20:44.834Z,1.27
2018-04-26T10:23:12.411Z,1.62
2018-04-26T10:25:40.537Z,1.00
2018-04-26T10:28:08.215Z,1.20
2018-04-26T10:30:35.810Z,1.40
2018-04-26T10:33:03.444Z,0.95
2018-04-26T10:35:31.192Z,1.20
2018-04-26T10:37:58.858Z,0.98
2018-04-26T10:40:26.452Z,1.05
2018-04-26T10:42:54.034Z,1.48
2018-04-26T10:45:22.358Z,1.20
2018-04-26T10:47:49.934Z,1.10
2018-04-26T10:50:17.493Z,1.40
2018-04-26T10:52:45.083Z,1.50
2018-04-26T10:55:12.742Z,1.15
2018-04-26T10:57:40.948Z,1.00
2018-04-26T11:00:08.557Z,1.35
2018-04-26T11:02:36.181Z,1.12
2018-04-26T11:05:03.825Z,1.40
2018-04-26T11:07:31.417Z,1.70
2018-04-26T11:09:59.062Z,2.08
2018-04-26T11:12:27.389Z,1.20
2018-04-26T11:14:55.757Z,0.95
2018-04-26T11:17:24.081Z,0.90
2018-04-26T11:19:51.657Z,1.10
2018-04-26T11:22:19.254Z,0.90
2018-04-26T11:24:46.834Z,1.02
2018-04-26T11:27:14.496Z,0.80
2018-04-26T11:29:42.138Z,0.98
2018-04-26T11:32:09.734Z,0.85
2018-04-26T11:34:37.418Z,1.30
2018-04-26T11:37:05.015Z,1.05
2018-04-26T11:39:32.655Z,1.25
2018-04-26T11:42:00.246Z,1.10
2018-04-26T11:44:27.823Z,1.00
2018-04-26T11:46:55.401Z,1.00
2018-04-26T11:49:22.965Z,0.95
2018-04-26T11:51:50.600Z,1.40
2018-04-26T11:54:18.162Z,0.85
2018-04-26T11:56:45.776Z,1.37
2018-04-26T11:59:14.174Z,1.00
2018-04-26T12:01:41.840Z,0.90
2018-04-26T12:04:09.418Z,1.10
2018-04-26T12:06:37.161Z,0.88
2018-04-26T12:09:05.635Z,0.90
2018-04-26T12:11:33.302Z,2.10
2018-04-26T12:14:00.878Z,1.15
2018-04-26T12:16:28.534Z,1.37
2018-04-26T12:18:56.882Z,1.60
2018-04-26T12:21:24.465Z,1.50
2018-04-26T12:23:52.030Z,1.85
2018-04-26T12:26:19.609Z,1.20
2018-04-26T12:28:47.178Z,1.10
2018-04-26T12:31:14.789Z,1.08
2018-04-26T12:33:43.135Z,1.40
2018-04-26T12:36:10.743Z,1.50
2018-04-26T12:38:39.130Z,1.37
2018-04-26T12:41:07.534Z,1.10
2018-04-26T12:43:35.906Z,1.00
2018-04-26T12:46:03.514Z,1.25
2018-04-26T12:48:31.142Z,1.02
2018-04-26T12:50:58.710Z,1.00
2018-04-26T12:53:26.385Z,1.30
2018-04-26T12:55:53.941Z,1.02
2018-04-26T12:58:21.517Z,1.80
2018-04-26T13:00:49.070Z,2.40
2018-04-26T13:03:16.654Z,2.50
2018-04-26T13:05:44.272Z,2.85
2018-04-26T13:08:12.645Z,3.05
2018-04-26T13:10:40.380Z,2.55
2018-04-26T13:13:08.017Z,2.90
2018-04-26T13:15:35.637Z,2.90
2018-04-26T13:18:03.245Z,3.03
2018-04-26T13:20:31.610Z,2.92
2018-04-26T13:22:59.943Z,2.92
2018-04-26T13:25:28.285Z,2.75
2018-04-26T13:27:55.845Z,2.90
2018-04-26T13:30:23.417Z,2.47
2018-04-26T13:32:50.979Z,2.17
2018-04-26T13:35:18.557Z,2.30
2018-04-26T13:37:46.118Z,2.40
2018-04-26T13:40:13.746Z,1.90
2018-04-26T13:42:41.336Z,1.80
2018-04-26T13:45:09.725Z,2.25
2018-04-26T13:47:37.360Z,1.80
2018-04-26T13:50:05.154Z,1.83
2018-04-26T13:52:32.883Z,1.65
2018-04-26T13:55:00.498Z,1.33
2018-04-26T13:57:28.110Z,1.70
2018-04-26T13:59:55.684Z,1.75
2018-04-26T14:02:24.021Z,1.75
2018-04-26T14:04:51.581Z,1.45
2018-04-26T14:07:19.148Z,1.50
2018-04-26T14:09:46.758Z,1.55
2018-04-26T14:12:14.342Z,1.50
2018-04-26T14:14:41.928Z,1.30
2018-04-26T14:17:10.279Z,1.40
2018-04-26T14:19:37.928Z,1.37
2018-04-26T14:22:05.614Z,1.65
2018-04-26T14:24:33.214Z,2.47
2018-04-26T14:27:01.657Z,1.83
2018-04-26T14:29:29.298Z,1.85
2018-04-26T14:31:57.663Z,2.22
2018-04-26T14:34:25.419Z,1.92
2018-04-26T14:36:52.985Z,2.10
2018-04-26T14:39:20.593Z,1.92
2018-04-26T14:41:48.221Z,1.83
2018-04-26T14:44:15.858Z,1.90
2018-04-26T14:46:44.202Z,1.60
2018-04-26T14:49:11.894Z,1.55
2018-04-26T14:51:39.462Z,2.00
2018-04-26T14:54:07.146Z,2.17
2018-04-26T14:56:34.773Z,2.20
2018-04-26T14:59:02.373Z,1.70
2018-04-26T15:01:29.968Z,1.80
2018-04-26T15:03:58.356Z,1.75
2018-04-26T15:06:26.189Z,1.62
2018-04-26T15:08:53.887Z,1.85
2018-04-26T15:11:21.503Z,1.92
2018-04-26T15:13:49.866Z,1.50
2018-04-26T15:16:18.653Z,1.60
2018-04-26T15:18:46.241Z,1.60
2018-04-26T15:21:13.847Z,1.75
2018-04-26T15:23:41.456Z,1.70
2018-04-26T15:26:09.098Z,1.50
2018-04-26T15:28:37.499Z,1.60
2018-04-26T15:31:05.101Z,1.90
2018-04-26T15:33:32.666Z,2.13
2018-04-26T15:36:00.278Z,1.57
2018-04-26T15:38:27.831Z,1.77
2018-04-26T15:40:55.447Z,2.00
2018-04-26T15:43:23.851Z,2.23
2018-04-26T15:45:52.251Z,2.33
2018-04-26T15:48:19.861Z,2.53
2018-04-26T15:50:54.228Z,3.00
2018-04-26T15:53:33.857Z,2.23
2018-04-26T15:56:14.433Z,2.50
2018-04-26T16:02:19.118Z,2.30
2018-04-26T16:04:58.712Z,2.77
2018-04-26T16:07:54.229Z,2.77
2018-04-26T16:10:40.252Z,2.80
2018-04-26T16:13:26.392Z,2.63
2018-04-26T16:16:11.573Z,2.33
2018-04-26T16:18:51.053Z,2.93
2018-04-26T16:21:35.729Z,2.50
2018-04-26T16:24:21.086Z,2.43
2018-04-26T16:27:06.258Z,2.87
2018-04-26T16:29:45.768Z,3.53
2018-04-26T16:32:31.096Z,2.20
2018-04-26T16:35:16.994Z,2.50
2018-04-26T16:38:02.974Z,1.80
2018-04-26T16:40:30.656Z,2.33
2018-04-26T16:42:58.294Z,1.55
2018-04-26T16:45:25.870Z,1.80
2018-04-26T16:47:53.449Z,1.85
2018-04-26T16:50:21.534Z,1.70
2018-04-26T16:52:49.121Z,1.65
2018-04-26T16:55:16.753Z,1.20
2018-04-26T16:57:44.530Z,1.27
2018-04-26T17:00:12.093Z,1.20
2018-04-26T17:02:39.705Z,1.12
2018-04-26T17:05:07.285Z,1.20
2018-04-26T17:07:34.862Z,1.02
2018-04-26T17:10:02.420Z,1.37
2018-04-26T17:12:30.099Z,1.60
2018-04-26T17:14:57.665Z,1.55
2018-04-26T17:17:25.241Z,1.37
2018-04-26T17:19:52.813Z,1.40
2018-04-26T17:22:20.393Z,1.37
2018-04-26T17:24:49.526Z,1.70
2018-04-26T17:27:17.910Z,1.50
2018-04-26T17:29:45.614Z,1.37
2018-04-26T17:32:13.242Z,1.95
2018-04-26T17:34:40.849Z,1.92
2018-04-26T17:37:09.202Z,2.33
2018-04-26T17:39:39.759Z,1.70
2018-04-26T17:42:07.422Z,2.20
2018-04-26T17:44:35.006Z,3.10
2018-04-26T17:47:02.659Z,3.67
2018-04-26T17:49:30.233Z,3.55
2018-04-26T17:51:57.790Z,7.97
2018-04-26T17:54:25.376Z,6.03
2018-04-26T17:56:52.941Z,5.43
2018-04-26T17:59:20.556Z,3.12
2018-04-26T18:01:48.920Z,3.90
2018-04-26T18:04:16.561Z,6.95
2018-04-26T18:06:45.509Z,5.05
2018-04-26T18:09:13.868Z,3.25
2018-04-26T18:11:41.456Z,6.90
2018-04-26T18:14:09.029Z,5.37
2018-04-26T18:16:36.702Z,3.50
2018-04-26T18:19:04.262Z,5.40
2018-04-26T18:21:31.854Z,4.57
2018-04-26T18:23:59.525Z,3.60
2018-04-26T18:26:27.106Z,3.40
2018-04-26T18:28:54.667Z,3.08
2018-04-26T18:31:22.257Z,3.00
2018-04-26T18:33:49.897Z,3.10
2018-04-26T18:36:17.459Z,2.80
2018-04-26T18:38:45.033Z,3.53
2018-04-26T18:41:12.587Z,3.05
2018-04-26T18:43:40.165Z,3.20
2018-04-26T18:46:07.726Z,4.18
2018-04-26T18:48:35.298Z,4.07
2018-04-26T18:51:02.901Z,4.18
2018-04-26T18:53:30.547Z,3.72
2018-04-26T18:55:58.097Z,2.80
2018-04-26T18:58:26.541Z,3.65
2018-04-26T19:00:54.169Z,3.25
2018-04-26T19:03:21.789Z,2.90
2018-04-26T19:05:49.357Z,3.10
2018-04-26T19:08:16.941Z,3.12
2018-04-26T19:10:44.730Z,3.15
2018-04-26T19:13:12.321Z,3.08
2018-04-26T19:15:40.676Z,3.55
2018-04-26T19:18:08.234Z,4.05
2018-04-26T19:20:35.801Z,3.00
2018-04-26T19:23:03.389Z,3.78
2018-04-26T19:25:31.686Z,3.33
2018-04-26T19:28:00.743Z,2.92
2018-04-26T19:30:28.968Z,2.97
2018-04-26T19:32:57.321Z,3.60
2018-04-26T19:35:25.006Z,3.87
2018-04-26T19:37:52.787Z,3.80
2018-04-26T19:40:20.493Z,3.40
2018-04-26T19:42:48.045Z,4.70
2018-04-26T19:45:15.629Z,4.30
2018-04-26T19:47:43.191Z,3.75
2018-04-26T19:50:10.794Z,6.70
2018-04-26T19:52:39.154Z,8.07
2018-04-26T19:55:06.924Z,16.45
2018-04-26T19:57:34.447Z,8.52
2018-04-26T20:00:02.772Z,8.30
2018-04-26T20:02:30.342Z,7.15
2018-04-26T20:04:57.895Z,4.40
2018-04-26T20:07:27.065Z,5.53
2018-04-26T20:09:54.635Z,4.93
2018-04-26T20:12:22.212Z,4.65
2018-04-26T20:14:49.786Z,4.05
2018-04-26T20:17:18.401Z,4.57
2018-04-26T20:19:46.055Z,5.75
2018-04-26T20:22:13.721Z,6.90
2018-04-26T20:24:41.297Z,5.40
2018-04-26T20:27:08.966Z,5.30
2018-04-26T20:29:37.237Z,6.10
2018-04-26T20:32:04.875Z,4.95
2018-04-26T20:34:33.229Z,4.03
2018-04-26T20:37:00.890Z,4.03
2018-04-26T20:39:28.461Z,4.00
2018-04-26T20:41:56.106Z,4.87
2018-04-26T20:44:35.869Z,4.10
2018-04-26T20:47:03.421Z,4.53
2018-04-26T20:49:31.754Z,4.65
2018-04-26T20:51:59.504Z,4.55
2018-04-26T20:54:27.114Z,4.85
2018-04-26T20:56:54.673Z,4.90
2018-04-26T20:59:22.354Z,5.28
2018-04-26T21:01:49.909Z,5.15
2018-04-26T21:04:17.565Z,5.07
2018-04-26T21:06:45.117Z,5.70
2018-04-26T21:09:13.454Z,5.15
2018-04-26T21:11:41.016Z,4.93
2018-04-26T21:14:08.656Z,5.45
2018-04-26T21:16:36.289Z,4.65
2018-04-26T21:19:03.887Z,3.33
2018-04-26T21:21:32.259Z,4.03
2018-04-26T21:24:00.692Z,4.75
2018-04-26T21:26:28.350Z,5.10
2018-04-26T21:28:55.969Z,4.30
2018-04-26T21:31:23.529Z,4.10
2018-04-26T21:33:51.130Z,4.80
2018-04-26T21:36:18.706Z,4.45
2018-04-26T21:38:46.257Z,4.75
2018-04-26T21:41:13.830Z,4.72
2018-04-26T21:43:41.409Z,5.25
2018-04-26T21:46:08.986Z,5.00
2018-04-26T21:48:36.554Z,4.20
2018-04-26T21:51:09.856Z,4.00
2018-04-26T21:53:43.117Z,4.82
2018-04-26T21:56:17.070Z,4.20
2018-04-26T21:58:50.789Z,4.70
2018-04-26T22:01:23.985Z,3.92
2018-04-26T22:07:01.107Z,3.20
2018-04-26T22:09:29.826Z,3.20
2018-04-26T22:11:57.412Z,3.12
2018-04-26T22:14:25.063Z,4.20
2018-04-26T22:16:52.636Z,3.60
2018-04-26T22:19:20.188Z,3.35
2018-04-26T22:21:47.774Z,3.53
2018-04-26T22:24:15.384Z,3.75
2018-04-26T22:26:42.977Z,3.85
2018-04-26T22:29:10.529Z,4.20
2018-04-26T22:31:38.097Z,3.50
2018-04-26T22:34:05.777Z,3.55
2018-04-26T22:36:33.334Z,3.60
2018-04-26T22:39:00.922Z,4.07
2018-04-26T22:41:28.495Z,3.92
2018-04-26T22:43:56.189Z,3.30
2018-04-26T22:46:24.565Z,3.70
2018-04-26T22:48:53.014Z,4.20
2018-04-26T22:51:20.661Z,4.57
2018-04-26T22:53:48.242Z,4.40
2018-04-26T22:56:15.869Z,5.12
2018-04-26T22:58:43.537Z,5.87
2018-04-26T23:01:11.097Z,3.78
2018-04-26T23:03:38.677Z,4.10
2018-04-26T23:06:06.230Z,4.53
2018-04-26T23:08:33.780Z,5.28
2018-04-26T23:11:01.399Z,5.00
2018-04-26T23:13:28.955Z,3.15
2018-04-26T23:15:56.545Z,4.03
2018-04-26T23:18:24.097Z,4.18
2018-04-26T23:20:51.664Z,3.80
2018-04-26T23:23:19.261Z,3.92
2018-04-26T23:25:47.473Z,3.85
2018-04-26T23:28:15.113Z,4.15
2018-04-26T23:30:42.681Z,4.35
2018-04-26T23:33:10.241Z,4.40
2018-04-26T23:35:38.988Z,5.30
2018-04-26T23:38:06.643Z,5.12
2018-04-26T23:40:34.238Z,5.15
2018-04-26T23:43:02.702Z,5.30
2018-04-26T23:45:30.392Z,4.70
2018-04-26T23:47:58.769Z,5.37
2018-04-26T23:50:26.343Z,5.93
2018-04-26T23:52:53.922Z,4.87
2018-04-26T23:55:21.477Z,5.05
2018-04-26T23:57:49.049Z,6.53
